Time;durP1;ratioP1;P1;durP2;ratioP2;P2;SDS_P1;SDS_P2;PMS_P1;PMS_P2;Temp;Humidity;BMP_temperature;BMP_pressure;BME280_temperature;BME280_humidity;BME280_pressure;Samples;Min_cycle;Max_cycle;Signal;HPM_P1;HPM_P2
2021/12/16 00:02:14;;;;;;;85.38;33.97;;;;;;;;;;5059108;28;20040;-38
2021/12/16 00:05:56;;;;;;;81.82;32.78;;;;;;;;;;5058749;28;20028;-38
2021/12/16 00:07:43;;;;;;;75.78;30.85;;;;;;;;;;5041001;28;20207;-38
2021/12/16 00:10:26;;;;;;;82.95;31.35;;;;;;;;;;5058958;28;20021;-37
2021/12/16 00:29:57;;;;;;;133.43;32.28;;;;;;;;;;5058879;28;20154;-38
2021/12/16 00:32:43;;;;;;;133.80;30.83;;;;;;;;;;5058271;28;20036;-38
2021/12/16 00:35:10;;;;;;;127.30;33.20;;;;;;;;;;5058809;28;20032;-38
2021/12/16 00:37:35;;;;;;;152.20;36.88;;;;;;;;;;5058522;28;20020;-39
2021/12/16 00:40:04;;;;;;;160.43;34.50;;;;;;;;;;5058429;28;20495;-38
2021/12/16 00:42:50;;;;;;;139.32;32.35;;;;;;;;;;5058394;28;20108;-37
2021/12/16 00:45:34;;;;;;;158.20;29.27;;;;;;;;;;5040442;28;20079;-38
2021/12/16 00:48:09;;;;;;;146.15;30.40;;;;;;;;;;5058422;28;20053;-38
2021/12/16 00:55:51;;;;;;;89.32;24.95;;;;;;;;;;5058660;28;20090;-37
2021/12/16 00:58:22;;;;;;;86.28;22.95;;;;;;;;;;5058255;28;20031;-38
2021/12/16 01:01:00;;;;;;;136.75;34.50;;;;;;;;;;5058528;28;20021;-37
2021/12/16 01:03:35;;;;;;;122.57;33.20;;;;;;;;;;5058282;28;20078;-37
2021/12/16 01:33:51;;;;;;;79.20;28.48;;;;;;;;;;5054694;28;20075;-38
2021/12/16 01:36:39;;;;;;;58.35;25.08;;;;;;;;;;5054216;28;20392;-39
2021/12/16 01:47:19;;;;;;;61.53;26.45;;;;;;;;;;5054707;28;20078;-38
2021/12/16 01:49:51;;;;;;;52.47;24.83;;;;;;;;;;5053935;28;20543;-38
2021/12/16 01:55:04;;;;;;;55.63;24.98;;;;;;;;;;5054411;28;20025;-38
2021/12/16 01:57:34;;;;;;;48.17;23.58;;;;;;;;;;5054565;28;20083;-38
2021/12/16 02:00:07;;;;;;;53.58;25.63;;;;;;;;;;5054230;28;20036;-38
2021/12/16 02:02:49;;;;;;;51.67;25.85;;;;;;;;;;5054471;28;20047;-38
2021/12/16 02:05:31;;;;;;;53.10;24.38;;;;;;;;;;5054094;28;20031;-38
2021/12/16 02:10:39;;;;;;;57.92;25.50;;;;;;;;;;5054334;28;20033;-39
2021/12/16 02:13:40;;;;;;;50.65;25.15;;;;;;;;;;5053769;28;20455;-38
2021/12/16 02:37:34;;;;;;;51.28;23.80;;;;;;;;;;5053527;28;20070;-38
2021/12/16 02:40:05;;;;;;;60.78;26.75;;;;;;;;;;5053674;28;20095;-38
2021/12/16 02:42:50;;;;;;;54.72;24.48;;;;;;;;;;5053715;28;20025;-38
2021/12/16 02:50:44;;;;;;;58.05;26.23;;;;;;;;;;5053544;28;20488;-38
2021/12/16 02:53:10;;;;;;;59.17;26.25;;;;;;;;;;5053056;28;20021;-38
2021/12/16 02:55:35;;;;;;;53.85;24.60;;;;;;;;;;5053035;28;20029;-38
2021/12/16 02:58:01;;;;;;;48.70;23.50;;;;;;;;;;5053333;28;20025;-38
2021/12/16 03:00:36;;;;;;;49.78;23.13;;;;;;;;;;5053015;28;20381;-37
2021/12/16 03:03:01;;;;;;;43.10;21.33;;;;;;;;;;5052954;28;20060;-37
2021/12/16 03:05:27;;;;;;;52.42;22.98;;;;;;;;;;5052902;28;20064;-38
2021/12/16 03:07:52;;;;;;;44.83;21.80;;;;;;;;;;5052857;28;20029;-38
2021/12/16 03:13:09;;;;;;;45.97;22.17;;;;;;;;;;5052682;28;20049;-38
2021/12/16 03:21:14;;;;;;;53.08;20.85;;;;;;;;;;5052771;28;20021;-37
2021/12/16 03:39:01;;;;;;;49.58;22.20;;;;;;;;;;5052541;28;20025;-38
2021/12/16 03:41:28;;;;;;;55.92;23.60;;;;;;;;;;5052340;28;20025;-38
2021/12/16 03:43:57;;;;;;;51.30;22.38;;;;;;;;;;5052504;28;20029;-38
2021/12/16 03:46:28;;;;;;;48.63;21.83;;;;;;;;;;5034353;28;20036;-38
2021/12/16 03:48:58;;;;;;;;;;;;;;;;;;5035107;28;20037;-38
2021/12/16 03:51:26;;;;;;;48.10;20.27;;;;;;;;;;5052310;28;19961;-38
2021/12/16 03:54:00;;;;;;;51.72;20.80;;;;;;;;;;5052167;28;20044;-37
2021/12/16 03:56:27;;;;;;;59.38;23.00;;;;;;;;;;5052669;28;20024;-39
2021/12/16 03:58:52;;;;;;;50.25;21.45;;;;;;;;;;5052657;28;20354;-39
2021/12/16 04:01:23;;;;;;;51.33;22.20;;;;;;;;;;5052201;28;20029;-39
2021/12/16 04:03:50;;;;;;;42.90;21.25;;;;;;;;;;5052190;28;20055;-39
2021/12/16 04:06:17;;;;;;;48.47;21.77;;;;;;;;;;5052579;28;20032;-39
2021/12/16 04:08:43;;;;;;;66.22;24.17;;;;;;;;;;5052221;28;20068;-39
2021/12/16 04:11:21;;;;;;;66.47;23.95;;;;;;;;;;5052181;28;20061;-39
2021/12/16 04:14:00;;;;;;;74.53;24.23;;;;;;;;;;5052064;28;20033;-39
2021/12/16 04:16:45;;;;;;;141.90;23.20;;;;;;;;;;5052367;28;20029;-39
2021/12/16 04:19:15;;;;;;;143.18;22.73;;;;;;;;;;5052397;28;20040;-39
2021/12/16 04:21:48;;;;;;;181.38;21.42;;;;;;;;;;5052052;28;20025;-39
2021/12/16 04:24:14;;;;;;;170.15;22.83;;;;;;;;;;5052342;28;20028;-38
2021/12/16 04:26:42;;;;;;;140.02;21.75;;;;;;;;;;5052099;28;20029;-38
2021/12/16 04:29:08;;;;;;;140.45;22.45;;;;;;;;;;5051910;28;20032;-39
2021/12/16 04:31:37;;;;;;;137.40;21.95;;;;;;;;;;5051982;28;20026;-39
2021/12/16 04:34:04;;;;;;;116.03;21.30;;;;;;;;;;5052140;28;20025;-38
2021/12/16 04:36:29;;;;;;;108.70;22.35;;;;;;;;;;5052066;28;20025;-39
2021/12/16 04:38:56;;;;;;;151.75;22.90;;;;;;;;;;5034109;28;20443;-39
2021/12/16 04:41:22;;;;;;;129.02;23.08;;;;;;;;;;5051865;28;20021;-38
2021/12/16 04:43:53;;;;;;;147.80;22.85;;;;;;;;;;5051842;28;20473;-38
2021/12/16 04:46:20;;;;;;;;;;;;;;;;;;5055242;28;20025;-37
2021/12/16 04:48:49;;;;;;;110.15;19.63;;;;;;;;;;5055787;28;20327;-37
2021/12/16 04:51:15;;;;;;;142.90;22.25;;;;;;;;;;5055526;28;20104;-37
2021/12/16 04:53:42;;;;;;;133.43;21.67;;;;;;;;;;5055334;28;20083;-37
2021/12/16 04:56:11;;;;;;;106.55;20.42;;;;;;;;;;5055758;28;20032;-37
2021/12/16 04:58:37;;;;;;;133.93;24.73;;;;;;;;;;5055771;28;20447;-37
2021/12/16 05:01:04;;;;;;;139.55;23.55;;;;;;;;;;5055670;28;20048;-37
2021/12/16 05:03:30;;;;;;;171.57;23.73;;;;;;;;;;5055338;28;20021;-37
2021/12/16 05:05:56;;;;;;;147.73;23.38;;;;;;;;;;5055255;28;20040;-37
2021/12/16 05:08:22;;;;;;;143.68;24.88;;;;;;;;;;5055206;28;20115;-37
2021/12/16 05:10:50;;;;;;;165.02;24.98;;;;;;;;;;5055236;28;20029;-37
2021/12/16 05:13:19;;;;;;;141.23;22.75;;;;;;;;;;5054881;28;20056;-37
2021/12/16 05:15:45;;;;;;;148.60;22.92;;;;;;;;;;5055422;28;20385;-37
2021/12/16 05:18:13;;;;;;;130.50;21.77;;;;;;;;;;5055362;28;20242;-37
2021/12/16 05:20:43;;;;;;;79.63;25.70;;;;;;;;;;5055297;28;20397;-37
2021/12/16 05:26:14;;;;;;;110.38;28.08;;;;;;;;;;5055273;28;20040;-37
2021/12/16 05:28:46;;;;;;;78.40;24.05;;;;;;;;;;5054832;28;20036;-38
2021/12/16 05:31:14;;;;;;;225.80;24.77;;;;;;;;;;5055078;28;20025;-37
2021/12/16 05:33:40;;;;;;;188.13;25.42;;;;;;;;;;5054506;28;20025;-38
2021/12/16 05:36:06;;;;;;;143.13;24.42;;;;;;;;;;5055013;28;20025;-37
2021/12/16 05:38:31;;;;;;;148.00;26.23;;;;;;;;;;5054923;28;20384;-37
2021/12/16 05:40:58;;;;;;;166.82;26.95;;;;;;;;;;5054907;28;20472;-37
2021/12/16 05:43:26;;;;;;;165.85;28.17;;;;;;;;;;5054888;28;20017;-37
2021/12/16 05:45:54;;;;;;;219.43;29.30;;;;;;;;;;5054416;28;20025;-37
2021/12/16 05:48:23;;;;;;;179.05;28.77;;;;;;;;;;5036733;28;20377;-36
2021/12/16 05:50:53;;;;;;;174.00;30.00;;;;;;;;;;5054681;28;20025;-37
2021/12/16 05:53:19;;;;;;;166.00;27.33;;;;;;;;;;5054285;28;20036;-37
2021/12/16 05:55:45;;;;;;;140.32;28.98;;;;;;;;;;5054219;28;20704;-37
2021/12/16 05:58:17;;;;;;;166.57;28.42;;;;;;;;;;5053777;28;20515;-37
2021/12/16 06:00:43;;;;;;;171.50;29.00;;;;;;;;;;5054255;28;20433;-37
2021/12/16 06:03:09;;;;;;;158.80;27.52;;;;;;;;;;5054139;28;20068;-37
2021/12/16 06:05:35;;;;;;;137.10;32.15;;;;;;;;;;5052835;28;20029;-36
2021/12/16 06:08:02;;;;;;;99.15;31.00;;;;;;;;;;5054045;28;20032;-37
2021/12/16 06:12:56;;;;;;;106.07;31.02;;;;;;;;;;5053883;28;20561;-36
2021/12/16 06:15:39;;;;;;;101.38;29.42;;;;;;;;;;5053918;28;20156;-37
2021/12/16 06:26:30;;;;;;;70.20;25.02;;;;;;;;;;5053997;28;20032;-37
2021/12/16 06:28:55;;;;;;;71.30;26.75;;;;;;;;;;5053969;28;20033;-37
2021/12/16 06:31:21;;;;;;;79.90;27.55;;;;;;;;;;5053864;28;20027;-37
2021/12/16 06:33:47;;;;;;;67.68;24.50;;;;;;;;;;5053728;28;20108;-37
2021/12/16 06:36:13;;;;;;;78.85;27.45;;;;;;;;;;5053742;28;20400;-37
2021/12/16 06:38:38;;;;;;;73.70;29.67;;;;;;;;;;5053327;28;20473;-37
2021/12/16 06:41:04;;;;;;;75.60;27.25;;;;;;;;;;5053302;28;20025;-37
2021/12/16 06:43:31;;;;;;;67.60;26.05;;;;;;;;;;5053553;28;20090;-38
2021/12/16 06:45:59;;;;;;;64.00;26.23;;;;;;;;;;5052008;28;20032;-37
2021/12/16 06:48:29;;;;;;;66.55;26.17;;;;;;;;;;5053421;28;20381;-37
2021/12/16 06:51:10;;;;;;;60.38;27.23;;;;;;;;;;5052772;28;20033;-37
2021/12/16 06:54:02;;;;;;;115.13;24.52;;;;;;;;;;5052949;28;20101;-37
2021/12/16 06:56:34;;;;;;;110.47;25.20;;;;;;;;;;5053394;28;20112;-37
2021/12/16 06:59:10;;;;;;;124.57;23.80;;;;;;;;;;5053344;28;20032;-37
2021/12/16 07:04:13;;;;;;;162.63;24.83;;;;;;;;;;5053302;28;20036;-37
2021/12/16 07:06:39;;;;;;;118.25;26.25;;;;;;;;;;5053083;28;20107;-37
2021/12/16 07:09:13;;;;;;;125.55;26.50;;;;;;;;;;5051638;28;20606;-38
2021/12/16 07:11:42;;;;;;;131.38;24.52;;;;;;;;;;5052598;28;20489;-38
2021/12/16 07:14:15;;;;;;;110.35;26.98;;;;;;;;;;5052635;28;20485;-37
2021/12/16 07:16:47;;;;;;;117.00;26.40;;;;;;;;;;5052787;28;20028;-36
2021/12/16 07:19:13;;;;;;;121.13;25.27;;;;;;;;;;5052460;28;20025;-37
2021/12/16 07:21:39;;;;;;;58.95;23.85;;;;;;;;;;5052674;28;20024;-38
2021/12/16 07:24:10;;;;;;;71.07;25.05;;;;;;;;;;5052835;28;20055;-38
2021/12/16 07:26:37;;;;;;;73.75;26.05;;;;;;;;;;5052763;28;20098;-36
2021/12/16 07:29:04;;;;;;;65.95;25.38;;;;;;;;;;5052557;28;20033;-37
2021/12/16 07:31:30;;;;;;;77.55;27.50;;;;;;;;;;5052453;28;20382;-37
2021/12/16 07:33:57;;;;;;;56.20;24.90;;;;;;;;;;5034381;28;20480;-37
2021/12/16 07:36:24;;;;;;;51.33;24.10;;;;;;;;;;5052459;28;20037;-37
2021/12/16 07:38:50;;;;;;;56.55;23.95;;;;;;;;;;5052719;28;20384;-37
2021/12/16 07:41:20;;;;;;;53.25;23.88;;;;;;;;;;5034469;28;20424;-37
2021/12/16 07:46:31;;;;;;;60.65;25.48;;;;;;;;;;5052670;28;20086;-39
2021/12/16 07:48:57;;;;;;;61.15;27.52;;;;;;;;;;5052491;28;20473;-37
2021/12/16 07:51:23;;;;;;;64.05;27.77;;;;;;;;;;5052322;28;20071;-40
2021/12/16 07:53:48;;;;;;;55.70;26.08;;;;;;;;;;5052181;28;20078;-37
2021/12/16 07:56:14;;;;;;;55.95;27.15;;;;;;;;;;5052471;28;20112;-37
2021/12/16 07:58:39;;;;;;;49.95;26.13;;;;;;;;;;5052181;28;20029;-38
2021/12/16 08:01:05;;;;;;;44.33;22.77;;;;;;;;;;5052421;28;20029;-38
2021/12/16 08:03:35;;;;;;;42.20;22.58;;;;;;;;;;5052216;28;20558;-38
2021/12/16 08:06:06;;;;;;;48.50;23.83;;;;;;;;;;5052677;28;20029;-37
2021/12/16 08:08:32;;;;;;;43.38;22.63;;;;;;;;;;5052021;28;20114;-37
2021/12/16 08:10:59;;;;;;;42.35;21.65;;;;;;;;;;5052214;28;20099;-38
2021/12/16 08:13:25;;;;;;;41.42;22.27;;;;;;;;;;5012321;28;20038;-37
2021/12/16 08:15:51;;;;;;;41.42;21.85;;;;;;;;;;5011387;28;20057;-37
2021/12/16 08:18:16;;;;;;;42.17;22.50;;;;;;;;;;5012692;28;20030;-37
2021/12/16 08:20:42;;;;;;;46.20;21.48;;;;;;;;;;5014662;28;20089;-37
2021/12/16 08:23:08;;;;;;;40.83;20.75;;;;;;;;;;5016535;28;20029;-37
2021/12/16 08:25:34;;;;;;;40.70;20.90;;;;;;;;;;5016222;28;20030;-37
2021/12/16 08:28:03;;;;;;;44.33;21.75;;;;;;;;;;5016432;28;20032;-37
2021/12/16 08:30:32;;;;;;;41.22;20.73;;;;;;;;;;5016403;28;20033;-37
2021/12/16 08:33:00;;;;;;;40.80;20.08;;;;;;;;;;5016073;28;20026;-37
2021/12/16 08:35:25;;;;;;;40.70;22.20;;;;;;;;;;5015973;28;20030;-38
2021/12/16 08:37:51;;;;;;;49.88;21.15;;;;;;;;;;5016283;28;20033;-36
2021/12/16 08:40:20;;;;;;;40.45;20.33;;;;;;;;;;5016041;28;20018;-37
2021/12/16 08:42:46;;;;;;;42.13;22.08;;;;;;;;;;5015859;28;20551;-39
2021/12/16 08:45:16;;;;;;;52.90;24.05;;;;;;;;;;5015766;28;20113;-37
2021/12/16 08:47:42;;;;;;;44.10;22.13;;;;;;;;;;5016196;28;20018;-37
2021/12/16 08:50:12;;;;;;;46.60;22.27;;;;;;;;;;5015851;28;20030;-37
2021/12/16 08:52:37;;;;;;;45.50;22.77;;;;;;;;;;5015776;28;20022;-38
2021/12/16 08:55:06;;;;;;;42.90;21.35;;;;;;;;;;5015933;28;20029;-38
2021/12/16 08:57:32;;;;;;;34.00;20.15;;;;;;;;;;5015645;28;20032;-38
2021/12/16 08:59:58;;;;;;;38.38;22.05;;;;;;;;;;5015597;28;20034;-38
2021/12/16 09:02:24;;;;;;;40.80;22.27;;;;;;;;;;5015234;28;20030;-38
2021/12/16 09:04:51;;;;;;;38.65;23.02;;;;;;;;;;5015669;28;20160;-37
2021/12/16 09:07:17;;;;;;;37.15;22.55;;;;;;;;;;5015444;28;20054;-38
2021/12/16 09:09:45;;;;;;;44.38;23.45;;;;;;;;;;5015536;28;20026;-39
2021/12/16 09:15:06;;;;;;;36.15;21.58;;;;;;;;;;5055156;28;20119;-38
2021/12/16 09:17:31;;;;;;;35.58;21.35;;;;;;;;;;5054782;28;20060;-39
2021/12/16 09:19:57;;;;;;;38.13;21.70;;;;;;;;;;5055143;28;20033;-39
2021/12/16 09:22:26;;;;;;;38.40;21.92;;;;;;;;;;5054834;28;20052;-39
2021/12/16 09:24:56;;;;;;;43.15;22.65;;;;;;;;;;5036906;28;20025;-37
2021/12/16 09:27:22;;;;;;;49.97;27.33;;;;;;;;;;5055175;28;20090;-39
2021/12/16 09:29:48;;;;;;;54.08;29.55;;;;;;;;;;5054925;28;20029;-38
2021/12/16 09:32:15;;;;;;;58.15;29.98;;;;;;;;;;5053493;28;20434;-39
2021/12/16 09:34:43;;;;;;;50.47;29.27;;;;;;;;;;5054579;28;20033;-39
2021/12/16 09:37:08;;;;;;;38.63;22.38;;;;;;;;;;5054701;28;20099;-38
2021/12/16 09:39:36;;;;;;;44.22;21.80;;;;;;;;;;5054621;28;20457;-38
2021/12/16 09:42:02;;;;;;;41.45;20.45;;;;;;;;;;5054094;28;20019;-38
2021/12/16 09:44:29;;;;;;;54.67;23.77;;;;;;;;;;5054714;28;20025;-39
2021/12/16 09:46:57;;;;;;;58.35;31.65;;;;;;;;;;5054973;28;20430;-37
2021/12/16 09:49:23;;;;;;;48.05;24.02;;;;;;;;;;5055140;28;20128;-38
2021/12/16 09:51:51;;;;;;;58.47;27.98;;;;;;;;;;5055200;28;20033;-38
2021/12/16 09:54:23;;;;;;;44.80;24.63;;;;;;;;;;5055165;28;20116;-38
2021/12/16 09:56:50;;;;;;;51.13;27.25;;;;;;;;;;5054892;28;20365;-38
2021/12/16 09:59:17;;;;;;;54.72;27.52;;;;;;;;;;5055059;28;20441;-38
2021/12/16 10:01:47;;;;;;;47.28;23.55;;;;;;;;;;5054894;28;20035;-39
2021/12/16 10:04:15;;;;;;;42.43;23.17;;;;;;;;;;5054705;28;20021;-40
2021/12/16 10:06:42;;;;;;;37.60;21.58;;;;;;;;;;5054607;28;20052;-38
2021/12/16 10:09:10;;;;;;;36.10;19.67;;;;;;;;;;5054809;28;20059;-38
2021/12/16 10:11:39;;;;;;;36.60;20.67;;;;;;;;;;5054288;28;20045;-38
2021/12/16 10:19:28;;;;;;;33.88;19.05;;;;;;;;;;5054497;28;20047;-40
2021/12/16 10:22:14;;;;;;;39.00;20.77;;;;;;;;;;5054422;28;20021;-39
2021/12/16 10:24:39;;;;;;;41.15;21.13;;;;;;;;;;5054544;28;20037;-38
2021/12/16 10:27:15;;;;;;;40.35;20.60;;;;;;;;;;5054206;28;20106;-38
2021/12/16 10:29:48;;;;;;;37.13;20.10;;;;;;;;;;5053847;28;20071;-40
2021/12/16 10:32:41;;;;;;;35.88;19.92;;;;;;;;;;5052238;28;20029;-40
2021/12/16 10:35:26;;;;;;;44.58;22.70;;;;;;;;;;5052096;28;20057;-40
2021/12/16 10:37:56;;;;;;;38.15;19.40;;;;;;;;;;5052283;28;20021;-39
2021/12/16 10:40:43;;;;;;;36.03;19.60;;;;;;;;;;5052303;28;20055;-41
2021/12/16 10:43:37;;;;;;;42.95;21.63;;;;;;;;;;5053175;28;20036;-39
2021/12/16 10:46:05;;;;;;;37.30;19.50;;;;;;;;;;5053623;28;20021;-38
2021/12/16 10:48:38;;;;;;;36.30;19.27;;;;;;;;;;5053763;28;20514;-41
2021/12/16 10:51:31;;;;;;;39.03;19.88;;;;;;;;;;5053549;28;20055;-40
2021/12/16 10:54:02;;;;;;;43.22;22.13;;;;;;;;;;5053272;28;20142;-39
2021/12/16 10:56:38;;;;;;;58.58;28.50;;;;;;;;;;5035999;28;20420;-40
2021/12/16 10:59:09;;;;;;;70.45;32.63;;;;;;;;;;5053559;28;20166;-38
2021/12/16 11:01:40;;;;;;;50.03;25.05;;;;;;;;;;5053406;28;20032;-38
2021/12/16 11:04:08;;;;;;;;;;;;;;;;;;5054142;28;20060;-39
2021/12/16 11:07:14;;;;;;;52.38;26.20;;;;;;;;;;5053270;28;19951;-39
2021/12/16 11:10:01;;;;;;;44.38;22.83;;;;;;;;;;4972247;28;20484;-38
2021/12/16 11:12:29;;;;;;;43.45;21.58;;;;;;;;;;4971895;28;20070;-38
2021/12/16 11:15:18;;;;;;;40.80;23.58;;;;;;;;;;5023656;28;20060;-39
2021/12/16 11:18:06;;;;;;;42.20;21.80;;;;;;;;;;5052716;28;20079;-39
2021/12/16 11:20:35;;;;;;;39.13;20.63;;;;;;;;;;5052660;28;20095;-39
2021/12/16 11:23:06;;;;;;;43.08;21.73;;;;;;;;;;5052188;28;20059;-38
2021/12/16 11:25:51;;;;;;;37.78;20.30;;;;;;;;;;5053174;28;20441;-39
2021/12/16 11:28:19;;;;;;;38.38;19.17;;;;;;;;;;5053023;28;20021;-38
2021/12/16 11:30:54;;;;;;;39.10;19.85;;;;;;;;;;5052939;28;20437;-38
2021/12/16 11:33:29;;;;;;;34.78;19.23;;;;;;;;;;5052527;28;20048;-38
2021/12/16 11:36:05;;;;;;;39.38;20.23;;;;;;;;;;5052890;28;20074;-38
2021/12/16 11:39:00;;;;;;;35.90;18.27;;;;;;;;;;5052494;28;20531;-39
2021/12/16 11:41:27;;;;;;;31.67;18.92;;;;;;;;;;5052843;28;20386;-39
2021/12/16 11:44:16;;;;;;;34.10;19.33;;;;;;;;;;5051879;28;20469;-38
2021/12/16 11:46:53;;;;;;;37.67;20.25;;;;;;;;;;5034704;28;20032;-42
2021/12/16 11:49:41;;;;;;;36.75;19.25;;;;;;;;;;5052710;28;20040;-41
2021/12/16 11:52:40;;;;;;;39.75;21.05;;;;;;;;;;5052363;28;20471;-42
2021/12/16 11:55:14;;;;;;;34.65;19.17;;;;;;;;;;5035440;28;20071;-43
2021/12/16 11:57:51;;;;;;;37.42;18.05;;;;;;;;;;5052322;28;20462;-41
2021/12/16 12:00:22;;;;;;;32.08;17.98;;;;;;;;;;5052252;28;20029;-41
2021/12/16 12:02:48;;;;;;;;;;;;;;;;;;5052693;28;20021;-40
2021/12/16 12:05:42;;;;;;;31.75;17.63;;;;;;;;;;5052012;28;19916;-43
2021/12/16 12:08:31;;;;;;;36.05;18.08;;;;;;;;;;5049400;28;20075;-43
2021/12/16 12:11:02;;;;;;;28.88;16.85;;;;;;;;;;5051923;28;20108;-40
2021/12/16 12:13:34;;;;;;;34.47;18.85;;;;;;;;;;5011884;28;20132;-43
2021/12/16 12:16:07;;;;;;;36.80;22.35;;;;;;;;;;5012049;28;20508;-43
2021/12/16 12:18:41;;;;;;;36.85;21.40;;;;;;;;;;5012505;28;20104;-40
2021/12/16 12:21:35;;;;;;;37.00;19.13;;;;;;;;;;5011964;28;20140;-40
2021/12/16 12:24:09;;;;;;;35.65;18.83;;;;;;;;;;5011939;28;20109;-41
2021/12/16 12:26:43;;;;;;;36.63;19.77;;;;;;;;;;5012580;28;20042;-41
2021/12/16 12:29:15;;;;;;;33.97;18.33;;;;;;;;;;5007471;28;20041;-42
2021/12/16 12:31:44;;;;;;;34.75;19.50;;;;;;;;;;4992758;28;20057;-41
2021/12/16 12:34:11;;;;;;;32.38;18.95;;;;;;;;;;5006434;28;20080;-43
2021/12/16 12:36:37;;;;;;;33.60;18.92;;;;;;;;;;5011123;28;20163;-40
2021/12/16 12:39:08;;;;;;;34.45;18.77;;;;;;;;;;5010161;28;20549;-41
2021/12/16 12:41:34;;;;;;;36.25;19.83;;;;;;;;;;5010717;28;20139;-44
2021/12/16 12:44:04;;;;;;;33.03;19.08;;;;;;;;;;5011491;28;20114;-41
2021/12/16 12:46:34;;;;;;;40.20;19.98;;;;;;;;;;5007121;28;20034;-42
2021/12/16 12:49:05;;;;;;;34.70;19.25;;;;;;;;;;5011979;28;20553;-43
2021/12/16 12:51:34;;;;;;;31.42;18.35;;;;;;;;;;5012340;28;20034;-40
2021/12/16 12:54:15;;;;;;;40.10;19.15;;;;;;;;;;5012260;28;20080;-41
2021/12/16 12:56:41;;;;;;;37.72;21.15;;;;;;;;;;5012254;28;20026;-39
2021/12/16 12:59:15;;;;;;;32.75;18.80;;;;;;;;;;5012213;28;20028;-42
2021/12/16 13:01:51;;;;;;;35.80;18.55;;;;;;;;;;5011817;28;20026;-43
2021/12/16 13:04:28;;;;;;;33.80;19.48;;;;;;;;;;5011640;28;20022;-43
2021/12/16 13:06:59;;;;;;;32.88;19.65;;;;;;;;;;5014298;28;20466;-48
2021/12/16 13:09:26;;;;;;;35.38;19.35;;;;;;;;;;5015431;28;20028;-46
2021/12/16 13:11:52;;;;;;;32.63;17.63;;;;;;;;;;5029538;28;20053;-42
2021/12/16 13:14:29;;;;;;;41.42;19.30;;;;;;;;;;5054888;28;20032;-41
2021/12/16 13:28:56;;;;;;;30.38;17.48;;;;;;;;;;5054892;28;20124;-37
2021/12/16 13:31:50;;;;;;;30.40;18.45;;;;;;;;;;5054985;28;20053;-42
2021/12/16 13:35:07;;;;;;;38.05;21.10;;;;;;;;;;5054497;28;20443;-41
2021/12/16 13:37:39;;;;;;;36.67;20.25;;;;;;;;;;5054417;28;20519;-40
2021/12/16 13:40:17;;;;;;;36.55;20.55;;;;;;;;;;5054476;28;20055;-41
2021/12/16 13:42:58;;;;;;;39.88;20.73;;;;;;;;;;5054758;28;20433;-40
2021/12/16 13:45:29;;;;;;;39.50;21.58;;;;;;;;;;5054697;28;20068;-40
2021/12/16 14:00:07;;;;;;;36.75;21.42;;;;;;;;;;5054332;28;20064;-38
2021/12/16 14:02:12;;;;;;;40.47;21.52;;;;;;;;;;5053904;28;20044;-42
2021/12/16 14:10:12;;;;;;;45.90;24.55;;;;;;;;;;5054194;28;20021;-42
2021/12/16 14:17:49;;;;;;;50.05;28.05;;;;;;;;;;5053147;28;20082;-39
2021/12/16 14:23:57;;;;;;;57.03;29.23;;;;;;;;;;5054112;28;20115;-40
2021/12/16 14:50:33;;;;;;;52.25;27.95;;;;;;;;;;5053358;28;20632;-43
2021/12/16 14:52:59;;;;;;;56.40;30.95;;;;;;;;;;5053281;28;20025;-39
2021/12/16 14:55:26;;;;;;;60.53;32.95;;;;;;;;;;5053229;28;20074;-38
2021/12/16 14:57:55;;;;;;;61.80;33.03;;;;;;;;;;5053036;28;20029;-38
2021/12/16 15:00:32;;;;;;;62.20;31.67;;;;;;;;;;5053302;28;20021;-39
2021/12/16 15:03:09;;;;;;;56.22;30.55;;;;;;;;;;5052993;28;20033;-39
2021/12/16 15:05:40;;;;;;;53.63;30.65;;;;;;;;;;5052925;28;20071;-39
2021/12/16 15:08:30;;;;;;;56.25;29.92;;;;;;;;;;5052979;28;20025;-38
2021/12/16 15:10:56;;;;;;;;;;;;;;;;;;5053744;28;20118;-41
2021/12/16 15:13:30;;;;;;;51.53;26.27;;;;;;;;;;5052576;28;20021;-42
2021/12/16 15:35:49;;;;;;;61.35;32.17;;;;;;;;;;5051861;28;20108;-40
2021/12/16 15:42:50;;;;;;;49.40;27.05;;;;;;;;;;5052441;28;20075;-41
2021/12/16 15:45:27;;;;;;;43.13;25.58;;;;;;;;;;5052202;28;20503;-41
2021/12/16 15:47:57;;;;;;;46.28;25.25;;;;;;;;;;5052337;28;20461;-44
2021/12/16 15:50:34;;;;;;;;;;;;;;;;;;5052949;28;20033;-40
2021/12/16 15:53:00;;;;;;;47.13;24.98;;;;;;;;;;5052167;28;19919;-42
2021/12/16 15:55:29;;;;;;;51.33;26.23;;;;;;;;;;5052170;28;20112;-42
2021/12/16 15:58:22;;;;;;;50.83;27.98;;;;;;;;;;5052227;28;20028;-42
2021/12/16 16:00:53;;;;;;;46.15;25.65;;;;;;;;;;5049128;28;20073;-42
2021/12/16 16:03:20;;;;;;;51.00;27.52;;;;;;;;;;5053154;28;20025;-44
2021/12/16 16:05:50;;;;;;;45.28;26.65;;;;;;;;;;5052817;28;20033;-42
2021/12/16 16:08:18;;;;;;;50.42;26.15;;;;;;;;;;5052795;28;20033;-42
2021/12/16 16:10:47;;;;;;;49.08;27.33;;;;;;;;;;5052829;28;20448;-43
2021/12/16 16:13:23;;;;;;;52.75;28.73;;;;;;;;;;5052482;28;20280;-41
2021/12/16 16:15:51;;;;;;;51.63;29.30;;;;;;;;;;5052726;28;20108;-45
2021/12/16 16:20:56;;;;;;;53.72;28.67;;;;;;;;;;5052887;28;20028;-41
2021/12/16 16:23:24;;;;;;;56.30;26.27;;;;;;;;;;5052853;28;20052;-40
2021/12/16 16:25:50;;;;;;;45.95;25.17;;;;;;;;;;5052502;28;20086;-44
2021/12/16 16:28:16;;;;;;;43.17;24.52;;;;;;;;;;5052243;28;20025;-41
2021/12/16 16:30:44;;;;;;;39.80;22.98;;;;;;;;;;5052229;28;20029;-39
2021/12/16 16:33:18;;;;;;;40.60;23.65;;;;;;;;;;5051827;28;20021;-38
2021/12/16 16:36:00;;;;;;;39.25;22.58;;;;;;;;;;5051918;28;20520;-38
2021/12/16 16:38:31;;;;;;;39.03;22.70;;;;;;;;;;5052153;28;20021;-39
2021/12/16 16:41:04;;;;;;;39.05;23.55;;;;;;;;;;5052872;28;20049;-39
2021/12/16 16:43:33;;;;;;;43.78;23.63;;;;;;;;;;5055761;28;20174;-38
2021/12/16 16:46:11;;;;;;;51.72;26.50;;;;;;;;;;5055678;28;20036;-39
2021/12/16 16:49:18;;;;;;;43.00;24.88;;;;;;;;;;5055550;28;20047;-39
2021/12/16 16:51:43;;;;;;;38.75;23.48;;;;;;;;;;5051426;28;20037;-40
2021/12/16 16:54:19;;;;;;;39.33;22.70;;;;;;;;;;5055444;28;20025;-39
2021/12/16 16:56:57;;;;;;;40.50;22.15;;;;;;;;;;5055474;28;20047;-39
2021/12/16 16:59:26;;;;;;;40.90;22.92;;;;;;;;;;5055555;28;20082;-39
2021/12/16 17:01:52;;;;;;;39.72;22.90;;;;;;;;;;5055333;28;20064;-40
2021/12/16 17:04:18;;;;;;;39.72;20.92;;;;;;;;;;5055350;28;20025;-43
2021/12/16 17:06:48;;;;;;;33.45;19.25;;;;;;;;;;5055322;28;20036;-39
2021/12/16 17:09:14;;;;;;;31.85;19.33;;;;;;;;;;5055297;28;20451;-42
2021/12/16 17:11:48;;;;;;;34.40;20.27;;;;;;;;;;5055196;28;20037;-39
2021/12/16 17:14:18;;;;;;;35.92;20.17;;;;;;;;;;5055423;28;20033;-40
2021/12/16 17:19:59;;;;;;;36.33;20.58;;;;;;;;;;5055476;28;20043;-41
2021/12/16 17:22:32;;;;;;;37.45;20.45;;;;;;;;;;5054302;28;20116;-38
2021/12/16 17:24:59;;;;;;;34.08;20.67;;;;;;;;;;5055009;28;20025;-38
2021/12/16 17:27:34;;;;;;;38.90;21.17;;;;;;;;;;5054903;28;20040;-40
2021/12/16 17:30:05;;;;;;;40.72;21.92;;;;;;;;;;5054810;28;20106;-39
2021/12/16 17:32:33;;;;;;;39.70;20.33;;;;;;;;;;5055047;28;20025;-38
2021/12/16 17:35:09;;;;;;;40.78;22.17;;;;;;;;;;5055045;28;20033;-39
2021/12/16 17:37:58;;;;;;;40.15;22.35;;;;;;;;;;5054698;28;20618;-38
2021/12/16 17:40:32;;;;;;;46.13;23.20;;;;;;;;;;5054414;28;20032;-39
2021/12/16 17:43:02;;;;;;;49.58;26.17;;;;;;;;;;5054612;28;20381;-41
2021/12/16 17:45:33;;;;;;;43.70;25.42;;;;;;;;;;5053917;28;20028;-38
2021/12/16 17:48:01;;;;;;;45.28;25.02;;;;;;;;;;5053803;28;20065;-39
2021/12/16 17:50:32;;;;;;;48.33;26.13;;;;;;;;;;5054225;28;20028;-38
2021/12/16 17:52:58;;;;;;;47.92;26.40;;;;;;;;;;5053169;28;20024;-38
2021/12/16 17:55:35;;;;;;;46.55;26.60;;;;;;;;;;5054360;28;20481;-38
2021/12/16 17:58:09;;;;;;;45.30;25.83;;;;;;;;;;5054267;28;20033;-43
2021/12/16 18:00:44;;;;;;;44.83;24.35;;;;;;;;;;5054182;28;20568;-43
2021/12/16 18:03:25;;;;;;;44.53;22.98;;;;;;;;;;5053912;28;20076;-43
2021/12/16 18:05:53;;;;;;;43.65;24.90;;;;;;;;;;5054026;28;20021;-39
2021/12/16 18:08:40;;;;;;;42.70;23.33;;;;;;;;;;5054061;28;20502;-43
2021/12/16 18:11:13;;;;;;;40.03;22.70;;;;;;;;;;5054039;28;20083;-45
2021/12/16 18:13:41;;;;;;;38.58;21.73;;;;;;;;;;5053865;28;20079;-43
2021/12/16 18:16:08;;;;;;;33.00;20.00;;;;;;;;;;5054087;28;20112;-42
2021/12/16 18:18:34;;;;;;;37.13;19.98;;;;;;;;;;5054218;28;20025;-43
2021/12/16 18:21:01;;;;;;;36.55;21.20;;;;;;;;;;5053835;28;20091;-45
2021/12/16 18:23:28;;;;;;;39.75;22.83;;;;;;;;;;5054104;28;20036;-45
2021/12/16 18:26:00;;;;;;;40.33;23.02;;;;;;;;;;5054058;28;20378;-44
2021/12/16 18:28:48;;;;;;;38.90;22.05;;;;;;;;;;5053985;28;20017;-43
2021/12/16 18:31:28;;;;;;;35.45;20.83;;;;;;;;;;5053088;28;20094;-42
2021/12/16 18:33:56;;;;;;;37.83;20.88;;;;;;;;;;5053844;28;20047;-39
2021/12/16 18:36:34;;;;;;;38.83;20.27;;;;;;;;;;5053560;28;20415;-38